Time;durP1;ratioP1;P1;durP2;ratioP2;P2;SDS_P1;SDS_P2;PMS_P1;PMS_P2;Temp;Humidity;BMP_temperature;BMP_pressure;BME280_temperature;BME280_humidity;BME280_pressure;Samples;Min_cycle;Max_cycle;Signal;HPM_P1;HPM_P2
2022/11/30 00:01:49;;;;;;;349.85;100.15;;;;;;;5.73;100.00;102157.09;5051885;28;20429;-48
2022/11/30 00:04:14;;;;;;;366.67;105.32;;;;;;;5.73;100.00;102157.09;5053135;28;20025;-49
2022/11/30 00:06:43;;;;;;;362.85;101.97;;;;;;;5.73;100.00;102159.66;5052537;28;20432;-45
2022/11/30 00:09:08;;;;;;;344.20;95.88;;;;;;;5.73;100.00;102160.56;5052677;28;20033;-48
2022/11/30 00:11:33;;;;;;;334.85;101.95;;;;;;;5.75;100.00;102163.22;5052795;28;20043;-48
2022/11/30 00:13:59;;;;;;;362.35;101.95;;;;;;;5.74;100.00;102157.19;5052885;28;20017;-49
2022/11/30 00:16:26;;;;;;;353.83;102.30;;;;;;;5.74;100.00;102156.31;5052517;28;20032;-45
2022/11/30 00:18:51;;;;;;;360.93;101.70;;;;;;;5.75;100.00;102160.66;5052686;28;20422;-45
2022/11/30 00:21:16;;;;;;;368.75;101.22;;;;;;;5.74;100.00;102164.00;5051920;28;20612;-44
2022/11/30 00:23:43;;;;;;;344.00;102.20;;;;;;;5.75;100.00;102164.09;5052729;28;20021;-48
2022/11/30 00:26:11;;;;;;;354.40;97.85;;;;;;;5.74;100.00;102164.88;5052954;28;20116;-49
2022/11/30 00:28:37;;;;;;;;;;;;;;;5.85;100.00;102170.75;5052346;28;20457;-49
2022/11/30 00:31:05;;;;;;;331.65;98.57;;;;;;;5.77;100.00;102159.09;5052865;28;19920;-49
2022/11/30 00:33:34;;;;;;;;;;;;;;;5.86;100.00;102164.88;5053094;28;20472;-46
2022/11/30 00:36:01;;;;;;;335.13;98.47;;;;;;;5.78;100.00;102163.44;5051866;28;20326;-49
2022/11/30 00:38:27;;;;;;;339.92;97.50;;;;;;;5.78;100.00;102163.44;5052826;28;20025;-49
2022/11/30 00:40:53;;;;;;;350.05;97.03;;;;;;;5.78;100.00;102163.44;5052569;28;20025;-49
2022/11/30 00:43:18;;;;;;;345.98;99.78;;;;;;;5.79;100.00;102167.75;5052070;28;20032;-46
2022/11/30 00:45:43;;;;;;;325.73;97.85;;;;;;;5.78;100.00;102160.88;5052391;28;20041;-49
2022/11/30 00:48:09;;;;;;;327.58;95.60;;;;;;;5.80;100.00;102166.09;5052611;28;20435;-48
2022/11/30 00:50:34;;;;;;;331.67;97.78;;;;;;;5.80;100.00;102164.44;5051356;28;20033;-49
2022/11/30 00:52:59;;;;;;;329.17;94.40;;;;;;;5.80;100.00;102172.13;5052626;28;20043;-48
2022/11/30 00:55:26;;;;;;;301.33;91.10;;;;;;;5.80;100.00;102166.09;5052795;28;20025;-50
2022/11/30 00:57:51;;;;;;;307.77;91.43;;;;;;;5.77;100.00;102162.56;5051530;28;20025;-50
2022/11/30 01:00:17;;;;;;;305.10;90.45;;;;;;;5.77;100.00;102161.66;5053530;28;20120;-49
2022/11/30 01:02:42;;;;;;;308.35;90.63;;;;;;;5.75;100.00;102164.09;5056067;28;20380;-49
2022/11/30 01:05:07;;;;;;;295.27;89.85;;;;;;;5.76;100.00;102167.56;5055928;28;20082;-49
2022/11/30 01:07:33;;;;;;;315.17;87.68;;;;;;;5.74;100.00;102172.53;5056305;28;20033;-49
2022/11/30 01:09:58;;;;;;;288.42;87.35;;;;;;;5.75;100.00;102173.47;5056073;28;20056;-47
2022/11/30 01:12:23;;;;;;;289.85;88.82;;;;;;;5.73;100.00;102173.34;5055898;28;20024;-50
2022/11/30 01:14:48;;;;;;;278.83;86.57;;;;;;;5.73;100.00;102172.44;5056306;28;20028;-48
2022/11/30 01:17:14;;;;;;;258.05;81.18;;;;;;;5.71;100.00;102171.47;5056241;28;20067;-49
2022/11/30 01:19:39;;;;;;;268.60;83.03;;;;;;;5.69;100.00;102176.44;5055457;28;20021;-49
2022/11/30 01:22:04;;;;;;;259.48;79.53;;;;;;;5.68;100.00;102168.69;5056376;28;20028;-45
2022/11/30 01:24:29;;;;;;;270.20;83.60;;;;;;;5.68;100.00;102169.59;5055222;28;20036;-49
2022/11/30 01:26:55;;;;;;;244.35;77.50;;;;;;;5.69;100.00;102168.78;5056086;28;20033;-49
2022/11/30 01:29:20;;;;;;;252.90;79.60;;;;;;;5.65;100.00;102163.34;5056229;28;20032;-50
2022/11/30 01:31:46;;;;;;;230.95;75.80;;;;;;;5.60;100.00;102165.56;5054826;28;20021;-50
2022/11/30 01:34:11;;;;;;;225.68;75.90;;;;;;;5.57;100.00;102171.34;5056103;28;20112;-49
2022/11/30 01:36:37;;;;;;;219.68;74.30;;;;;;;5.50;100.00;102169.16;5055559;28;20029;-49
2022/11/30 01:39:06;;;;;;;218.18;73.82;;;;;;;5.41;100.00;102176.16;5055199;28;20028;-48
2022/11/30 01:41:32;;;;;;;227.75;74.03;;;;;;;5.40;100.00;102171.84;5055503;28;20082;-49
2022/11/30 01:44:17;;;;;;;234.07;74.65;;;;;;;5.45;100.00;102175.63;5055815;28;20096;-49
2022/11/30 01:47:08;;;;;;;237.85;72.90;;;;;;;5.50;100.00;102178.47;5054477;28;20028;-48
2022/11/30 01:49:35;;;;;;;229.02;72.55;;;;;;;5.48;100.00;102172.38;5055616;28;20117;-50
2022/11/30 01:52:10;;;;;;;237.45;74.75;;;;;;;5.49;100.00;102175.06;5055500;28;20029;-49
2022/11/30 01:54:44;;;;;;;230.32;77.35;;;;;;;5.51;100.00;102177.72;5054750;28;20120;-50
2022/11/30 01:57:19;;;;;;;238.07;75.72;;;;;;;5.51;100.00;102183.69;5055424;28;20106;-47
2022/11/30 01:59:45;;;;;;;214.68;73.07;;;;;;;5.57;100.00;102189.25;5054463;28;20029;-48
2022/11/30 02:02:10;;;;;;;222.95;77.28;;;;;;;5.56;100.00;102192.59;5055629;28;20429;-49
2022/11/30 02:04:37;;;;;;;217.80;72.93;;;;;;;5.56;100.00;102194.28;5055256;28;20036;-49
2022/11/30 02:07:06;;;;;;;227.32;71.60;;;;;;;5.57;100.00;102196.06;5054651;28;20028;-49
2022/11/30 02:09:36;;;;;;;223.25;69.35;;;;;;;5.55;100.00;102188.28;5055048;28;20025;-46
2022/11/30 02:12:06;;;;;;;221.40;73.18;;;;;;;5.57;100.00;102199.50;5055071;28;20029;-50
2022/11/30 02:14:54;;;;;;;216.48;74.43;;;;;;;5.63;100.00;102200.72;5054502;28;20028;-47
2022/11/30 02:17:19;;;;;;;;;;;;;;;5.70;100.00;102195.25;5055823;28;20094;-48
2022/11/30 02:20:06;;;;;;;196.63;66.78;;;;;;;5.61;100.00;102187.81;5054847;28;19913;-50
2022/11/30 02:22:41;;;;;;;;;;;;;;;5.71;100.00;102191.94;5054908;28;20108;-49
2022/11/30 02:25:32;;;;;;;207.38;71.47;;;;;;;5.60;100.00;102194.63;5054948;28;20256;-49
2022/11/30 02:28:03;;;;;;;214.32;71.57;;;;;;;5.53;100.00;102197.50;5054273;28;20033;-49
2022/11/30 02:30:31;;;;;;;196.50;67.35;;;;;;;5.53;100.00;102197.50;5054879;28;20059;-49
2022/11/30 02:33:06;;;;;;;201.70;68.93;;;;;;;5.54;100.00;102193.25;5055023;28;20057;-49
2022/11/30 02:35:35;;;;;;;191.43;65.32;;;;;;;5.54;100.00;102194.16;5053962;28;20039;-46
2022/11/30 02:38:03;;;;;;;203.30;69.55;;;;;;;5.54;100.00;102199.28;5055055;28;20021;-48
2022/11/30 02:40:28;;;;;;;207.95;71.65;;;;;;;5.56;100.00;102200.25;5054681;28;20371;-49
2022/11/30 02:42:56;;;;;;;203.00;70.65;;;;;;;5.54;100.00;102199.28;5053527;28;20055;-49
2022/11/30 02:45:30;;;;;;;193.77;66.82;;;;;;;5.56;100.00;102197.69;5054816;28;20028;-49
2022/11/30 02:48:06;;;;;;;186.25;67.20;;;;;;;5.57;100.00;102199.50;5054353;28;20036;-48
2022/11/30 02:50:43;;;;;;;202.80;70.43;;;;;;;5.56;100.00;102200.25;5053993;28;20025;-46
2022/11/30 02:53:08;;;;;;;201.37;71.67;;;;;;;5.60;100.00;102198.81;5054610;28;20396;-49
2022/11/30 02:55:34;;;;;;;188.93;66.88;;;;;;;5.64;100.00;102198.25;5053983;28;20280;-49
2022/11/30 02:57:59;;;;;;;192.30;68.10;;;;;;;5.63;100.00;102199.06;5054044;28;20025;-49
2022/11/30 03:00:24;;;;;;;189.38;69.25;;;;;;;5.68;100.00;102207.94;5054335;28;20041;-48
2022/11/30 03:02:49;;;;;;;198.55;67.95;;;;;;;5.67;100.00;102205.25;5053362;28;20107;-48
2022/11/30 03:05:15;;;;;;;184.90;66.63;;;;;;;5.71;100.00;102207.28;5054316;28;20041;-49
2022/11/30 03:07:40;;;;;;;173.13;64.40;;;;;;;5.74;100.00;102207.47;5053969;28;20028;-49
2022/11/30 03:10:06;;;;;;;172.60;63.55;;;;;;;5.74;100.00;102210.03;5053348;28;20104;-48
2022/11/30 03:12:32;;;;;;;178.85;67.00;;;;;;;5.73;100.00;102210.81;5054171;28;20037;-49
2022/11/30 03:14:57;;;;;;;182.50;67.05;;;;;;;5.73;100.00;102205.69;5054259;28;20494;-49
2022/11/30 03:17:22;;;;;;;180.73;65.50;;;;;;;5.74;100.00;102202.38;5053341;28;20043;-49
2022/11/30 03:19:47;;;;;;;172.02;63.70;;;;;;;5.75;100.00;102209.28;5053707;28;20040;-49
2022/11/30 03:22:13;;;;;;;163.88;66.10;;;;;;;5.73;100.00;102205.69;5053682;28;20106;-48
2022/11/30 03:24:38;;;;;;;160.23;62.50;;;;;;;5.68;100.00;102197.72;5052299;28;20028;-49
2022/11/30 03:27:03;;;;;;;163.27;62.05;;;;;;;5.68;100.00;102201.94;5053853;28;20025;-47
2022/11/30 03:29:28;;;;;;;164.52;61.55;;;;;;;5.70;100.00;102200.38;5053981;28;20021;-49
2022/11/30 03:31:54;;;;;;;159.73;61.80;;;;;;;5.65;100.00;102206.84;5052680;28;20033;-49
2022/11/30 03:34:19;;;;;;;161.38;63.33;;;;;;;5.68;100.00;102207.03;5053722;28;20033;-49
2022/11/30 03:36:44;;;;;;;158.73;63.35;;;;;;;5.66;100.00;102206.94;5053332;28;20373;-44
2022/11/30 03:39:10;;;;;;;174.57;64.68;;;;;;;5.69;100.00;102204.59;5052878;28;20100;-46
2022/11/30 03:41:35;;;;;;;163.27;62.22;;;;;;;5.65;100.00;102207.72;5053219;28;20500;-49
2022/11/30 03:44:00;;;;;;;149.30;59.35;;;;;;;5.65;100.00;102212.81;5053429;28;20108;-50
2022/11/30 03:46:26;;;;;;;161.88;61.70;;;;;;;5.60;100.00;102211.59;5052868;28;20028;-50
2022/11/30 03:48:52;;;;;;;158.73;60.67;;;;;;;5.58;100.00;102210.63;5053155;28;20025;-49
2022/11/30 03:51:17;;;;;;;148.57;60.40;;;;;;;5.58;100.00;102206.38;5053320;28;20021;-50
2022/11/30 03:53:43;;;;;;;161.15;62.30;;;;;;;5.56;100.00;102213.03;5052280;28;20032;-49
2022/11/30 03:56:09;;;;;;;146.23;60.67;;;;;;;5.52;100.00;102211.06;5053375;28;20088;-49
2022/11/30 03:58:35;;;;;;;155.70;60.08;;;;;;;5.45;100.00;102206.31;5052637;28;20447;-49
2022/11/30 04:01:09;;;;;;;160.02;63.33;;;;;;;5.47;100.00;102214.06;5052635;28;20120;-47
2022/11/30 04:03:36;;;;;;;154.07;61.10;;;;;;;5.43;100.00;102211.28;5052869;28;20524;-49
2022/11/30 04:06:02;;;;;;;156.55;62.03;;;;;;;5.45;100.00;102211.41;5052990;28;20107;-50
2022/11/30 04:08:28;;;;;;;145.93;61.22;;;;;;;5.49;100.00;102215.97;5052428;28;20100;-50
2022/11/30 04:10:55;;;;;;;136.00;56.17;;;;;;;5.39;100.00;102219.50;5052723;28;20104;-49
2022/11/30 04:13:21;;;;;;;136.80;55.20;;;;;;;5.35;100.00;102216.63;5052401;28;20075;-49
2022/11/30 04:15:48;;;;;;;134.43;57.08;;;;;;;5.32;100.00;102217.31;5052636;28;20349;-48
2022/11/30 04:18:15;;;;;;;133.85;55.63;;;;;;;5.35;100.00;102216.63;5053255;28;20025;-48
2022/11/30 04:20:40;;;;;;;131.65;53.97;;;;;;;5.24;100.00;102218.38;5051971;28;20032;-48
2022/11/30 04:23:07;;;;;;;139.63;56.63;;;;;;;5.27;100.00;102221.19;5052810;28;20078;-48
2022/11/30 04:25:32;;;;;;;129.27;54.42;;;;;;;5.24;100.00;102216.75;5052520;28;20036;-49
2022/11/30 04:27:58;;;;;;;140.88;55.00;;;;;;;5.19;100.00;102220.63;5052183;28;20025;-49
2022/11/30 04:30:23;;;;;;;126.97;52.63;;;;;;;5.16;100.00;102212.72;5052922;28;20439;-49
2022/11/30 04:32:48;;;;;;;122.88;52.97;;;;;;;5.18;100.00;102221.41;5052311;28;20055;-49
2022/11/30 04:35:13;;;;;;;137.02;55.30;;;;;;;5.16;100.00;102219.50;5051934;28;20484;-49
2022/11/30 04:37:39;;;;;;;132.27;54.63;;;;;;;5.11;100.00;102221.72;5052293;28;20033;-47
2022/11/30 04:40:05;;;;;;;146.75;56.42;;;;;;;5.17;100.00;102221.28;5052890;28;20398;-48
2022/11/30 04:42:31;;;;;;;163.98;63.88;;;;;;;5.17;100.00;102224.72;5051929;28;20104;-49
2022/11/30 04:44:56;;;;;;;156.40;61.50;;;;;;;5.18;100.00;102218.84;5052840;28;20108;-49
2022/11/30 04:47:21;;;;;;;162.75;64.07;;;;;;;5.16;100.00;102211.84;5052510;28;20415;-49
2022/11/30 04:49:46;;;;;;;160.13;63.75;;;;;;;5.15;100.00;102215.16;5051809;28;20357;-49
2022/11/30 04:52:12;;;;;;;179.63;66.57;;;;;;;5.19;100.00;102225.75;5052490;28;20100;-49
2022/11/30 04:54:37;;;;;;;158.45;63.33;;;;;;;5.15;100.00;102218.63;5052156;28;20034;-50
2022/11/30 04:57:02;;;;;;;173.55;65.88;;;;;;;5.18;100.00;102216.28;5052098;28;20052;-49
2022/11/30 04:59:28;;;;;;;169.27;64.90;;;;;;;5.17;100.00;102222.16;5052579;28;20021;-49
2022/11/30 05:01:53;;;;;;;155.48;63.00;;;;;;;5.08;100.00;102216.38;5051755;28;20037;-49
2022/11/30 05:04:18;;;;;;;158.98;62.80;;;;;;;5.08;100.00;102221.50;5052006;28;20029;-49
2022/11/30 05:06:43;;;;;;;160.35;62.13;;;;;;;5.06;100.00;102223.03;5052056;28;20024;-49
2022/11/30 05:09:09;;;;;;;153.45;60.55;;;;;;;5.05;100.00;102217.03;5052305;28;20033;-48
2022/11/30 05:11:34;;;;;;;165.63;64.97;;;;;;;4.97;100.00;102227.47;5051663;28;20025;-48
2022/11/30 05:13:59;;;;;;;152.52;61.38;;;;;;;4.95;100.00;102225.69;5052338;28;20470;-46
2022/11/30 05:16:25;;;;;;;159.80;63.72;;;;;;;4.95;100.00;102225.69;5052273;28;20028;-49
2022/11/30 05:18:50;;;;;;;172.20;65.45;;;;;;;4.97;100.00;102230.03;5051517;28;20611;-45
2022/11/30 05:21:16;;;;;;;163.95;64.82;;;;;;;5.00;100.00;102232.81;5052261;28;20029;-49
2022/11/30 05:23:42;;;;;;;182.60;66.40;;;;;;;5.01;100.00;102234.56;5051132;28;20096;-49
2022/11/30 05:26:07;;;;;;;165.45;65.75;;;;;;;4.98;100.00;102234.34;5052410;28;20110;-49
2022/11/30 05:28:32;;;;;;;144.95;59.22;;;;;;;4.97;100.00;102232.56;5051951;28;20025;-48
2022/11/30 05:31:02;;;;;;;159.43;63.35;;;;;;;4.98;100.00;102239.47;5051610;28;20496;-49
2022/11/30 05:33:27;;;;;;;166.80;64.80;;;;;;;4.94;100.00;102229.03;5052204;28;20033;-47
2022/11/30 05:35:53;;;;;;;147.63;61.10;;;;;;;5.01;100.00;102239.69;5051959;28;20473;-49
2022/11/30 05:38:18;;;;;;;144.88;60.78;;;;;;;5.05;100.00;102241.72;5051226;28;20032;-50
2022/11/30 05:40:43;;;;;;;132.68;55.95;;;;;;;4.95;100.00;102243.56;5051956;28;20028;-48
2022/11/30 05:43:09;;;;;;;136.63;54.92;;;;;;;4.88;100.00;102249.00;5052305;28;20106;-48
2022/11/30 05:45:34;;;;;;;137.32;55.75;;;;;;;4.89;100.00;102242.22;5050968;28;20021;-48
2022/11/30 05:47:59;;;;;;;123.45;54.75;;;;;;;4.87;100.00;102252.31;5055510;28;20108;-45
2022/11/30 05:50:25;;;;;;;164.20;60.17;;;;;;;4.85;100.00;102238.53;5055406;28;20025;-48
2022/11/30 05:52:55;;;;;;;168.93;63.70;;;;;;;4.89;100.00;102243.13;5054904;28;20025;-47
2022/11/30 05:55:22;;;;;;;157.32;61.75;;;;;;;4.82;100.00;102253.66;5055612;28;20468;-48
2022/11/30 05:57:47;;;;;;;133.97;55.43;;;;;;;4.77;100.00;102249.84;5055160;28;20029;-49
2022/11/30 06:00:13;;;;;;;132.98;55.60;;;;;;;4.80;100.00;102255.19;5054887;28;20029;-49
2022/11/30 06:02:38;;;;;;;136.65;55.35;;;;;;;4.78;100.00;102256.75;5055224;28;20069;-48
2022/11/30 06:05:04;;;;;;;167.32;65.28;;;;;;;4.81;100.00;102262.06;5055126;28;20048;-48
2022/11/30 06:07:30;;;;;;;160.70;62.50;;;;;;;4.82;100.00;102256.19;5054894;28;20051;-49
2022/11/30 06:09:56;;;;;;;190.10;67.43;;;;;;;4.86;100.00;102259.88;5055513;28;20100;-48
2022/11/30 06:12:21;;;;;;;185.05;66.55;;;;;;;4.83;100.00;102258.00;5054940;28;20407;-49
2022/11/30 06:14:46;;;;;;;181.98;66.32;;;;;;;4.90;100.00;102257.66;5054310;28;20055;-50
2022/11/30 06:17:12;;;;;;;177.48;67.05;;;;;;;4.90;100.00;102259.34;5055213;28;20549;-49
2022/11/30 06:19:37;;;;;;;194.27;66.13;;;;;;;4.88;100.00;102259.22;5054522;28;20031;-50
2022/11/30 06:22:02;;;;;;;179.45;66.05;;;;;;;4.89;100.00;102265.22;5054542;28;20020;-49
2022/11/30 06:24:27;;;;;;;176.93;64.32;;;;;;;4.89;100.00;102260.09;5055213;28;20036;-49
2022/11/30 06:26:53;;;;;;;165.65;64.97;;;;;;;4.91;100.00;102262.00;5053971;28;20086;-49
2022/11/30 06:29:18;;;;;;;173.43;66.82;;;;;;;4.92;100.00;102263.78;5055146;28;20036;-49
2022/11/30 06:31:43;;;;;;;182.13;65.18;;;;;;;4.92;100.00;102263.78;5055060;28;20040;-49
2022/11/30 06:34:08;;;;;;;163.95;64.50;;;;;;;4.92;100.00;102258.69;5054017;28;20869;-49
2022/11/30 06:36:34;;;;;;;178.48;67.20;;;;;;;4.89;100.00;102255.91;5054434;28;20044;-48
2022/11/30 06:38:59;;;;;;;185.23;68.97;;;;;;;4.95;100.00;102256.34;5054797;28;20527;-48
2022/11/30 06:41:25;;;;;;;181.82;66.95;;;;;;;4.92;100.00;102266.34;5054049;28;20036;-49
2022/11/30 06:43:50;;;;;;;164.75;64.40;;;;;;;4.93;100.00;102268.13;5054406;28;20025;-46
2022/11/30 06:46:15;;;;;;;171.00;65.85;;;;;;;4.93;100.00;102268.13;5054742;28;20043;-50
2022/11/30 06:48:40;;;;;;;165.07;64.03;;;;;;;4.95;100.00;102269.13;5053512;28;20020;-49
2022/11/30 06:51:08;;;;;;;152.55;63.13;;;;;;;4.94;100.00;102269.91;5054536;28;20036;-49
2022/11/30 06:53:34;;;;;;;160.93;64.85;;;;;;;4.97;100.00;102276.00;5053979;28;20028;-49
2022/11/30 06:56:03;;;;;;;177.48;67.88;;;;;;;4.95;100.00;102269.13;5053886;28;20029;-48
2022/11/30 06:58:29;;;;;;;172.75;66.00;;;;;;;4.93;100.00;102273.25;5053467;28;20376;-47
2022/11/30 07:00:54;;;;;;;189.55;72.32;;;;;;;4.96;100.00;102277.69;5053721;28;20049;-49
2022/11/30 07:03:19;;;;;;;215.73;73.57;;;;;;;4.98;100.00;102280.34;5053720;28;20064;-45
2022/11/30 07:05:45;;;;;;;189.57;71.80;;;;;;;4.97;100.00;102288.78;5054056;28;20025;-47
2022/11/30 07:08:12;;;;;;;166.93;63.58;;;;;;;4.92;100.00;102278.25;5054101;28;20029;-49
2022/11/30 07:10:39;;;;;;;180.70;67.37;;;;;;;4.90;100.00;102288.31;5053376;28;20027;-49
2022/11/30 07:13:04;;;;;;;146.55;58.42;;;;;;;4.90;100.00;102285.75;5053999;28;20500;-49
2022/11/30 07:15:30;;;;;;;159.90;60.50;;;;;;;4.91;100.00;102292.66;5053853;28;20025;-50
2022/11/30 07:17:59;;;;;;;154.93;63.33;;;;;;;4.89;100.00;102291.66;5053215;28;20028;-48
2022/11/30 07:20:24;;;;;;;169.52;65.60;;;;;;;4.87;100.00;102282.97;5054190;28;20071;-48
2022/11/30 07:22:54;;;;;;;168.93;63.40;;;;;;;4.92;100.00;102298.69;5053284;28;20118;-50
2022/11/30 07:28:03;;;;;;;149.50;61.40;;;;;;;4.85;100.00;102307.50;5054187;28;20039;-49
2022/11/30 07:30:30;;;;;;;161.82;61.92;;;;;;;4.87;100.00;102310.22;5053000;28;20029;-48
2022/11/30 07:32:55;;;;;;;158.55;64.07;;;;;;;4.86;100.00;102305.88;5053405;28;20039;-50
2022/11/30 07:35:20;;;;;;;156.13;65.20;;;;;;;4.86;100.00;102322.06;5053622;28;20116;-49
2022/11/30 07:37:45;;;;;;;151.25;59.17;;;;;;;4.81;100.00;102318.28;5052682;28;20029;-49
2022/11/30 07:40:11;;;;;;;130.85;54.38;;;;;;;4.80;100.00;102321.59;5053603;28;20423;-49
2022/11/30 07:42:36;;;;;;;136.80;56.58;;;;;;;4.78;100.00;102325.72;5053028;28;20029;-48
2022/11/30 07:45:02;;;;;;;138.07;56.05;;;;;;;4.80;100.00;102326.69;5052827;28;20025;-48
2022/11/30 07:47:27;;;;;;;154.10;59.80;;;;;;;4.85;100.00;102330.50;5053635;28;20024;-49
2022/11/30 07:49:53;;;;;;;157.10;61.20;;;;;;;4.87;100.00;102325.53;5052987;28;20496;-49
2022/11/30 07:52:18;;;;;;;160.95;65.25;;;;;;;4.89;100.00;102327.44;5052606;28;20115;-49
2022/11/30 07:54:43;;;;;;;171.27;63.67;;;;;;;4.91;100.00;102333.53;5053029;28;20067;-49
2022/11/30 07:57:08;;;;;;;156.82;62.13;;;;;;;4.94;100.00;102331.22;5053012;28;20035;-49
2022/11/30 07:59:34;;;;;;;162.07;60.25;;;;;;;4.91;100.00;102330.97;5052322;28;20021;-50
2022/11/30 08:01:59;;;;;;;172.35;65.70;;;;;;;4.93;100.00;102325.97;5052981;28;20082;-50
2022/11/30 08:04:24;;;;;;;180.43;65.00;;;;;;;4.95;100.00;102329.56;5052897;28;20060;-49
2022/11/30 08:06:53;;;;;;;152.55;58.88;;;;;;;4.98;100.00;102337.44;5052460;28;20059;-49
2022/11/30 08:09:18;;;;;;;166.82;63.38;;;;;;;4.99;100.00;102339.22;5053012;28;20075;-47
2022/11/30 08:11:43;;;;;;;177.05;66.60;;;;;;;4.99;100.00;102339.22;5052520;28;20033;-49
2022/11/30 08:14:11;;;;;;;152.63;61.05;;;;;;;4.93;100.00;102343.88;5052161;28;20040;-49
2022/11/30 08:16:37;;;;;;;153.02;62.80;;;;;;;4.93;100.00;102344.78;5052650;28;20388;-50
2022/11/30 08:19:02;;;;;;;167.73;66.88;;;;;;;4.90;100.00;102349.63;5052938;28;20024;-49
2022/11/30 08:21:30;;;;;;;164.43;64.97;;;;;;;4.90;100.00;102343.63;5052539;28;20047;-50
2022/11/30 08:23:56;;;;;;;166.00;65.63;;;;;;;4.95;100.00;102353.44;5052668;28;20040;-48
2022/11/30 08:26:30;;;;;;;171.27;70.72;;;;;;;4.94;100.00;102351.66;5052190;28;20104;-48
2022/11/30 08:28:57;;;;;;;178.90;72.63;;;;;;;4.99;100.00;102348.56;5052361;28;20104;-47
2022/11/30 08:31:31;;;;;;;198.43;72.65;;;;;;;5.00;100.00;102356.34;5052966;28;20029;-47
2022/11/30 08:34:01;;;;;;;181.65;67.90;;;;;;;4.99;100.00;102353.69;5051703;28;20329;-50
2022/11/30 08:36:29;;;;;;;167.00;68.43;;;;;;;4.97;100.00;102365.44;5052848;28;20025;-49
2022/11/30 08:38:56;;;;;;;175.05;66.00;;;;;;;4.87;100.00;102368.97;5052344;28;20082;-49
2022/11/30 08:41:22;;;;;;;161.77;63.90;;;;;;;4.81;100.00;102364.25;5052060;28;20033;-48
2022/11/30 08:43:48;;;;;;;153.00;62.38;;;;;;;4.80;100.00;102372.69;5052073;28;20032;-49
2022/11/30 08:46:15;;;;;;;151.68;62.05;;;;;;;4.74;100.00;102373.09;5052428;28;20021;-52
2022/11/30 08:48:40;;;;;;;167.15;66.55;;;;;;;4.62;100.00;102372.13;5051840;28;20048;-50
2022/11/30 08:51:08;;;;;;;184.20;70.25;;;;;;;4.63;100.00;102376.47;5052749;28;20484;-49
2022/11/30 08:53:33;;;;;;;194.43;74.15;;;;;;;4.60;100.00;102374.56;5052007;28;20053;-50
2022/11/30 08:56:02;;;;;;;198.35;75.80;;;;;;;4.61;100.00;102376.38;5052030;28;20068;-49
2022/11/30 08:58:30;;;;;;;211.40;76.55;;;;;;;4.66;100.00;102374.19;5052678;28;20017;-49
2022/11/30 09:01:14;;;;;;;204.80;78.50;;;;;;;4.64;100.00;102372.28;5051893;28;20174;-49
2022/11/30 09:03:41;;;;;;;197.13;74.22;;;;;;;4.68;100.00;102376.84;5051696;28;20090;-49
2022/11/30 09:06:08;;;;;;;212.05;78.43;;;;;;;4.71;100.00;102377.09;5052417;28;20476;-49
2022/11/30 09:08:34;;;;;;;213.82;82.32;;;;;;;4.80;100.00;102377.78;5051252;28;20040;-47
2022/11/30 09:11:14;;;;;;;236.02;86.90;;;;;;;4.81;100.00;102383.81;5052451;28;20029;-49
2022/11/30 09:13:42;;;;;;;236.93;85.28;;;;;;;4.82;100.00;102386.47;5052042;28;20036;-50
2022/11/30 09:16:08;;;;;;;231.43;86.35;;;;;;;4.90;100.00;102389.63;5051563;28;20533;-49
2022/11/30 09:18:34;;;;;;;242.60;90.57;;;;;;;4.93;100.00;102385.66;5052029;28;20040;-49
2022/11/30 09:21:00;;;;;;;251.95;89.35;;;;;;;4.98;100.00;102397.88;5052467;28;20033;-50
2022/11/30 09:23:27;;;;;;;258.17;91.00;;;;;;;5.04;100.00;102395.81;5055497;28;20029;-49
2022/11/30 09:25:56;;;;;;;273.02;95.75;;;;;;;5.10;100.00;102399.72;5056029;28;20040;-49
2022/11/30 09:28:22;;;;;;;266.35;95.25;;;;;;;5.18;100.00;102395.19;5055873;28;20492;-50
2022/11/30 09:30:47;;;;;;;285.55;101.75;;;;;;;5.25;100.00;102394.00;5055255;28;20025;-48
2022/11/30 09:33:12;;;;;;;287.45;99.22;;;;;;;5.31;100.00;102403.78;5055872;28;20060;-49
2022/11/30 09:35:38;;;;;;;287.27;99.63;;;;;;;5.35;100.00;102398.16;5055261;28;20021;-48
2022/11/30 09:38:03;;;;;;;306.17;101.65;;;;;;;5.43;100.00;102399.63;5055487;28;20051;-49
2022/11/30 09:40:30;;;;;;;306.58;105.30;;;;;;;5.52;100.00;102394.31;5056159;28;20083;-48
2022/11/30 09:43:22;;;;;;;305.30;107.07;;;;;;;5.58;100.00;102397.34;5055290;28;20028;-50
2022/11/30 09:45:55;;;;;;;325.83;106.38;;;;;;;5.69;100.00;102403.22;5055419;28;20031;-49
2022/11/30 09:48:53;;;;;;;307.73;106.18;;;;;;;5.76;100.00;102400.38;5055969;28;20017;-48
2022/11/30 09:51:44;;;;;;;299.88;103.85;;;;;;;5.81;100.00;102399.03;5051066;28;20120;-50
2022/11/30 09:54:14;;;;;;;302.75;104.65;;;;;;;5.89;100.00;102395.38;5055504;28;20057;-50
2022/11/30 09:56:42;;;;;;;304.52;107.70;;;;;;;5.97;100.00;102384.81;5055255;28;20064;-50
2022/11/30 09:59:10;;;;;;;;;;;;;;;6.07;100.00;102393.31;5055675;28;20096;-50
2022/11/30 10:01:35;;;;;;;301.02;102.85;;;;;;;6.11;100.00;102391.84;5055102;28;19917;-51
2022/11/30 10:04:01;;;;;;;285.98;103.47;;;;;;;6.16;100.00;102393.09;5055298;28;20095;-51
2022/11/30 10:06:51;;;;;;;288.90;104.88;;;;;;;6.23;100.00;102392.72;5054897;28;20039;-51
2022/11/30 10:09:34;;;;;;;304.30;105.20;;;;;;;6.34;100.00;102390.03;5055579;28;20033;-51
2022/11/30 10:12:13;;;;;;;293.88;104.00;;;;;;;6.37;100.00;102380.91;5054489;28;20040;-50
2022/11/30 10:15:03;;;;;;;271.30;97.45;;;;;;;6.37;100.00;102380.03;5055023;28;20116;-52
2022/11/30 10:17:53;;;;;;;256.27;94.03;;;;;;;6.51;100.00;102375.91;5055259;28;20021;-52
2022/11/30 10:20:27;;;;;;;238.98;91.55;;;;;;;6.55;100.00;102373.66;5054584;28;20616;-51
2022/11/30 10:23:17;;;;;;;219.15;85.13;;;;;;;6.59;100.00;102380.75;5054830;28;20024;-51
2022/11/30 10:26:23;;;;;;;185.57;77.75;;;;;;;6.68;100.00;102379.66;5054396;28;20020;-51
2022/11/30 10:29:03;;;;;;;178.00;78.63;;;;;;;6.72;100.00;102379.09;5032709;28;20143;-52
2022/11/30 10:31:34;;;;;;;159.57;71.35;;;;;;;6.73;100.00;102371.50;5053204;28;20624;-51
2022/11/30 10:34:14;;;;;;;144.00;64.45;;;;;;;6.85;100.00;102373.13;5054199;28;20037;-51
2022/11/30 10:36:45;;;;;;;134.25;63.25;;;;;;;6.94;100.00;102375.44;5054529;28;20496;-50
2022/11/30 10:39:21;;;;;;;121.97;58.75;;;;;;;6.99;100.00;102376.66;5054679;28;20112;-47
2022/11/30 10:42:03;;;;;;;109.68;54.35;;;;;;;7.04;100.00;102375.31;5054026;28;20136;-50
2022/11/30 10:44:38;;;;;;;104.82;51.63;;;;;;;7.11;100.00;102377.47;5054952;28;20013;-49
2022/11/30 10:47:16;;;;;;;94.90;49.55;;;;;;;7.11;100.00;102380.03;5054076;28;20025;-50
2022/11/30 10:49:47;;;;;;;79.13;41.63;;;;;;;7.09;100.00;102374.81;5054397;28;20025;-50
2022/11/30 10:52:17;;;;;;;86.38;45.33;;;;;;;7.12;100.00;102380.97;5054200;28;20428;-49
2022/11/30 10:54:43;;;;;;;80.47;41.50;;;;;;;7.10;100.00;102373.13;5053439;28;20393;-50
2022/11/30 10:57:08;;;;;;;90.70;45.75;;;;;;;7.15;100.00;102369.22;5054358;28;20028;-48
2022/11/30 10:59:45;;;;;;;93.32;45.47;;;;;;;7.28;100.00;102370.06;5053740;28;20044;-50
2022/11/30 11:02:34;;;;;;;96.10;49.25;;;;;;;7.39;100.00;102369.09;5053954;28;20124;-50
2022/11/30 11:05:24;;;;;;;101.35;50.45;;;;;;;7.39;100.00;102369.09;5054477;28;20052;-50
2022/11/30 11:07:57;;;;;;;110.90;52.25;;;;;;;7.39;100.00;102369.97;5053851;28;20041;-50
2022/11/30 11:10:29;;;;;;;110.93;52.13;;;;;;;7.41;100.00;102373.56;5053719;28;20037;-50